sensor_id;sensor_type;location;lat;lon;timestamp;temperature;humidity
7496;DHT22;3789;47.064;15.482;2022-11-25T00:02:20;-4.30;99.90
7496;DHT22;3789;47.064;15.482;2022-11-25T00:04:49;-4.40;99.90
7496;DHT22;3789;47.064;15.482;2022-11-25T00:07:38;-4.50;99.90
7496;DHT22;3789;47.064;15.482;2022-11-25T00:10:07;-4.70;99.90
7496;DHT22;3789;47.064;15.482;2022-11-25T00:12:37;-4.70;99.90
7496;DHT22;3789;47.064;15.482;2022-11-25T00:15:06;-4.60;99.90
7496;DHT22;3789;47.064;15.482;2022-11-25T00:17:37;-4.70;99.90
7496;DHT22;3789;47.064;15.482;2022-11-25T00:20:05;-4.90;99.90
7496;DHT22;3789;47.064;15.482;2022-11-25T00:22:38;-4.90;99.90
7496;DHT22;3789;47.064;15.482;2022-11-25T00:25:10;-4.80;99.90
7496;DHT22;3789;47.064;15.482;2022-11-25T00:27:41;-4.80;99.90
7496;DHT22;3789;47.064;15.482;2022-11-25T00:30:16;-4.80;99.90
7496;DHT22;3789;47.064;15.482;2022-11-25T00:32:48;-2.90;99.90
7496;DHT22;3789;47.064;15.482;2022-11-25T00:35:16;-0.40;99.90
7496;DHT22;3789;47.064;15.482;2022-11-25T00:37:43;1.10;99.90
7496;DHT22;3789;47.064;15.482;2022-11-25T00:40:12;1.50;99.90
7496;DHT22;3789;47.064;15.482;2022-11-25T00:42:43;1.60;99.90
7496;DHT22;3789;47.064;15.482;2022-11-25T00:45:30;1.50;99.90
7496;DHT22;3789;47.064;15.482;2022-11-25T00:47:59;1.30;99.90
7496;DHT22;3789;47.064;15.482;2022-11-25T00:50:30;1.20;99.90
7496;DHT22;3789;47.064;15.482;2022-11-25T00:52:59;1.20;99.90
7496;DHT22;3789;47.064;15.482;2022-11-25T00:55:31;1.20;99.90
7496;DHT22;3789;47.064;15.482;2022-11-25T00:58:23;1.20;99.90
7496;DHT22;3789;47.064;15.482;2022-11-25T01:00:59;1.30;99.90
7496;DHT22;3789;47.064;15.482;2022-11-25T01:03:36;1.40;99.90
7496;DHT22;3789;47.064;15.482;2022-11-25T01:09:14;1.50;99.90
7496;DHT22;3789;47.064;15.482;2022-11-25T01:11:45;1.70;99.90
7496;DHT22;3789;47.064;15.482;2022-11-25T01:14:13;1.80;99.90
7496;DHT22;3789;47.064;15.482;2022-11-25T01:16:40;1.70;99.90
7496;DHT22;3789;47.064;15.482;2022-11-25T01:19:11;1.80;99.90
7496;DHT22;3789;47.064;15.482;2022-11-25T01:21:49;1.80;99.90
7496;DHT22;3789;47.064;15.482;2022-11-25T01:24:17;1.80;99.90
7496;DHT22;3789;47.064;15.482;2022-11-25T01:26:46;1.80;99.90
7496;DHT22;3789;47.064;15.482;2022-11-25T01:29:17;1.90;99.90
7496;DHT22;3789;47.064;15.482;2022-11-25T01:31:45;2.10;99.90
7496;DHT22;3789;47.064;15.482;2022-11-25T01:34:22;2.20;99.90
7496;DHT22;3789;47.064;15.482;2022-11-25T01:37:04;2.50;99.90
7496;DHT22;3789;47.064;15.482;2022-11-25T01:39:34;2.70;99.90
7496;DHT22;3789;47.064;15.482;2022-11-25T01:42:01;2.60;99.90
7496;DHT22;3789;47.064;15.482;2022-11-25T01:44:33;2.60;99.90
7496;DHT22;3789;47.064;15.482;2022-11-25T01:47:38;2.50;99.90
7496;DHT22;3789;47.064;15.482;2022-11-25T01:50:19;2.60;99.90
7496;DHT22;3789;47.064;15.482;2022-11-25T01:52:54;2.70;99.90
7496;DHT22;3789;47.064;15.482;2022-11-25T01:55:35;2.60;99.90
7496;DHT22;3789;47.064;15.482;2022-11-25T01:58:16;2.50;99.90
7496;DHT22;3789;47.064;15.482;2022-11-25T02:00:47;2.40;99.90
7496;DHT22;3789;47.064;15.482;2022-11-25T02:03:41;2.30;99.90
7496;DHT22;3789;47.064;15.482;2022-11-25T02:06:39;2.20;99.90
7496;DHT22;3789;47.064;15.482;2022-11-25T02:09:11;2.10;99.90
7496;DHT22;3789;47.064;15.482;2022-11-25T02:11:42;1.80;99.90
7496;DHT22;3789;47.064;15.482;2022-11-25T02:14:16;1.80;99.90
7496;DHT22;3789;47.064;15.482;2022-11-25T02:16:45;1.80;99.90
7496;DHT22;3789;47.064;15.482;2022-11-25T02:19:23;1.60;99.90
7496;DHT22;3789;47.064;15.482;2022-11-25T02:25:40;1.50;99.90
7496;DHT22;3789;47.064;15.482;2022-11-25T02:28:15;1.50;99.90
7496;DHT22;3789;47.064;15.482;2022-11-25T02:30:45;1.60;99.90
7496;DHT22;3789;47.064;15.482;2022-11-25T02:33:21;1.50;99.90
7496;DHT22;3789;47.064;15.482;2022-11-25T02:41:16;1.60;99.90
7496;DHT22;3789;47.064;15.482;2022-11-25T02:43:45;1.40;99.90
7496;DHT22;3789;47.064;15.482;2022-11-25T02:46:18;1.20;99.90
7496;DHT22;3789;47.064;15.482;2022-11-25T02:48:49;1.10;99.90
7496;DHT22;3789;47.064;15.482;2022-11-25T02:51:39;1.10;99.90
7496;DHT22;3789;47.064;15.482;2022-11-25T02:54:06;1.30;99.90
7496;DHT22;3789;47.064;15.482;2022-11-25T02:56:35;1.50;99.90
7496;DHT22;3789;47.064;15.482;2022-11-25T02:59:03;1.50;99.90
7496;DHT22;3789;47.064;15.482;2022-11-25T03:01:31;1.50;99.90
7496;DHT22;3789;47.064;15.482;2022-11-25T03:03:58;1.40;99.90
7496;DHT22;3789;47.064;15.482;2022-11-25T03:06:27;1.40;99.90
7496;DHT22;3789;47.064;15.482;2022-11-25T03:08:54;1.50;99.90
7496;DHT22;3789;47.064;15.482;2022-11-25T03:11:21;1.70;99.90
7496;DHT22;3789;47.064;15.482;2022-11-25T03:14:21;1.90;99.90
7496;DHT22;3789;47.064;15.482;2022-11-25T03:16:51;2.00;99.90
7496;DHT22;3789;47.064;15.482;2022-11-25T03:19:18;2.00;99.90
7496;DHT22;3789;47.064;15.482;2022-11-25T03:21:45;1.90;99.90
7496;DHT22;3789;47.064;15.482;2022-11-25T03:24:12;1.90;99.90
7496;DHT22;3789;47.064;15.482;2022-11-25T03:26:39;1.80;99.90
7496;DHT22;3789;47.064;15.482;2022-11-25T03:29:06;1.70;99.90
7496;DHT22;3789;47.064;15.482;2022-11-25T03:31:33;1.70;99.90
7496;DHT22;3789;47.064;15.482;2022-11-25T03:34:00;1.60;99.90
7496;DHT22;3789;47.064;15.482;2022-11-25T03:36:27;1.60;99.90
7496;DHT22;3789;47.064;15.482;2022-11-25T03:38:54;1.70;99.90
7496;DHT22;3789;47.064;15.482;2022-11-25T03:41:22;1.70;99.90
7496;DHT22;3789;47.064;15.482;2022-11-25T03:43:49;1.70;99.90
7496;DHT22;3789;47.064;15.482;2022-11-25T03:46:16;1.70;99.90
7496;DHT22;3789;47.064;15.482;2022-11-25T03:48:43;1.70;99.90
7496;DHT22;3789;47.064;15.482;2022-11-25T03:51:10;1.70;99.90
7496;DHT22;3789;47.064;15.482;2022-11-25T03:53:37;1.70;99.90
7496;DHT22;3789;47.064;15.482;2022-11-25T03:56:04;1.70;99.90
7496;DHT22;3789;47.064;15.482;2022-11-25T03:58:31;1.70;99.90
7496;DHT22;3789;47.064;15.482;2022-11-25T04:01:00;1.70;99.90
7496;DHT22;3789;47.064;15.482;2022-11-25T04:03:28;1.70;99.90
7496;DHT22;3789;47.064;15.482;2022-11-25T04:05:55;1.70;99.90
7496;DHT22;3789;47.064;15.482;2022-11-25T04:08:22;1.70;99.90
7496;DHT22;3789;47.064;15.482;2022-11-25T04:10:50;1.80;99.90
7496;DHT22;3789;47.064;15.482;2022-11-25T04:13:17;1.70;99.90
7496;DHT22;3789;47.064;15.482;2022-11-25T04:15:46;1.70;99.90
7496;DHT22;3789;47.064;15.482;2022-11-25T04:18:14;1.70;99.90
7496;DHT22;3789;47.064;15.482;2022-11-25T04:20:41;1.80;99.90
7496;DHT22;3789;47.064;15.482;2022-11-25T04:23:09;1.90;99.90
7496;DHT22;3789;47.064;15.482;2022-11-25T04:25:38;1.90;99.90
7496;DHT22;3789;47.064;15.482;2022-11-25T04:28:05;2.00;99.90
7496;DHT22;3789;47.064;15.482;2022-11-25T04:30:32;2.00;99.90
7496;DHT22;3789;47.064;15.482;2022-11-25T04:33:01;2.00;99.90
7496;DHT22;3789;47.064;15.482;2022-11-25T04:35:28;2.00;99.90
7496;DHT22;3789;47.064;15.482;2022-11-25T04:37:55;1.90;99.90
7496;DHT22;3789;47.064;15.482;2022-11-25T04:40:22;1.90;99.90
7496;DHT22;3789;47.064;15.482;2022-11-25T04:42:49;1.90;99.90
7496;DHT22;3789;47.064;15.482;2022-11-25T04:45:17;1.60;99.90
7496;DHT22;3789;47.064;15.482;2022-11-25T04:47:50;1.40;99.90
7496;DHT22;3789;47.064;15.482;2022-11-25T04:50:20;1.30;99.90
7496;DHT22;3789;47.064;15.482;2022-11-25T04:52:48;1.30;99.90
7496;DHT22;3789;47.064;15.482;2022-11-25T04:55:15;1.30;99.90
7496;DHT22;3789;47.064;15.482;2022-11-25T04:57:42;1.30;99.90
7496;DHT22;3789;47.064;15.482;2022-11-25T05:00:10;1.30;99.90
7496;DHT22;3789;47.064;15.482;2022-11-25T05:02:37;1.30;99.90
7496;DHT22;3789;47.064;15.482;2022-11-25T05:05:05;0.00;99.90
7496;DHT22;3789;47.064;15.482;2022-11-25T05:07:33;-1.50;99.90
7496;DHT22;3789;47.064;15.482;2022-11-25T05:10:00;-2.60;99.90
7496;DHT22;3789;47.064;15.482;2022-11-25T05:12:28;-3.40;99.90
7496;DHT22;3789;47.064;15.482;2022-11-25T05:14:55;-3.80;99.90
7496;DHT22;3789;47.064;15.482;2022-11-25T05:17:25;-4.10;99.90
7496;DHT22;3789;47.064;15.482;2022-11-25T05:19:53;-4.40;99.90
7496;DHT22;3789;47.064;15.482;2022-11-25T05:22:23;-4.70;99.90
7496;DHT22;3789;47.064;15.482;2022-11-25T05:24:51;-4.90;99.90
7496;DHT22;3789;47.064;15.482;2022-11-25T05:27:19;-4.90;99.90
7496;DHT22;3789;47.064;15.482;2022-11-25T05:29:46;-5.00;99.90
7496;DHT22;3789;47.064;15.482;2022-11-25T05:32:21;-5.30;99.90
7496;DHT22;3789;47.064;15.482;2022-11-25T05:34:49;-5.60;99.90
7496;DHT22;3789;47.064;15.482;2022-11-25T05:37:16;-5.70;99.90
7496;DHT22;3789;47.064;15.482;2022-11-25T05:39:50;-5.90;99.90
7496;DHT22;3789;47.064;15.482;2022-11-25T05:42:17;-6.00;99.90
7496;DHT22;3789;47.064;15.482;2022-11-25T05:44:44;-6.20;99.90
7496;DHT22;3789;47.064;15.482;2022-11-25T05:47:11;-6.20;99.90
7496;DHT22;3789;47.064;15.482;2022-11-25T05:49:38;-6.30;99.90
7496;DHT22;3789;47.064;15.482;2022-11-25T05:52:05;-6.40;99.90
7496;DHT22;3789;47.064;15.482;2022-11-25T05:54:32;-6.40;99.90
7496;DHT22;3789;47.064;15.482;2022-11-25T05:57:00;-6.40;99.90
7496;DHT22;3789;47.064;15.482;2022-11-25T05:59:27;-6.40;99.90
7496;DHT22;3789;47.064;15.482;2022-11-25T06:01:54;-6.40;99.90
7496;DHT22;3789;47.064;15.482;2022-11-25T06:04:21;-5.20;99.90
7496;DHT22;3789;47.064;15.482;2022-11-25T06:06:48;-3.90;99.90
7496;DHT22;3789;47.064;15.482;2022-11-25T06:09:15;-4.70;99.90
7496;DHT22;3789;47.064;15.482;2022-11-25T06:11:43;-5.40;99.90
7496;DHT22;3789;47.064;15.482;2022-11-25T06:14:10;-5.80;99.90
7496;DHT22;3789;47.064;15.482;2022-11-25T06:16:37;-6.10;99.90
7496;DHT22;3789;47.064;15.482;2022-11-25T06:19:04;-6.20;99.90
7496;DHT22;3789;47.064;15.482;2022-11-25T06:21:32;-6.40;99.90
7496;DHT22;3789;47.064;15.482;2022-11-25T06:23:59;-6.50;99.90
7496;DHT22;3789;47.064;15.482;2022-11-25T06:26:27;-6.70;99.90
7496;DHT22;3789;47.064;15.482;2022-11-25T06:28:55;-6.80;99.90
7496;DHT22;3789;47.064;15.482;2022-11-25T06:31:23;-6.80;99.90
7496;DHT22;3789;47.064;15.482;2022-11-25T06:33:52;-6.80;99.90
7496;DHT22;3789;47.064;15.482;2022-11-25T06:36:20;-6.70;99.90
7496;DHT22;3789;47.064;15.482;2022-11-25T06:38:52;-6.70;99.90
7496;DHT22;3789;47.064;15.482;2022-11-25T06:41:20;-6.50;99.90
7496;DHT22;3789;47.064;15.482;2022-11-25T06:43:48;-6.50;99.90
7496;DHT22;3789;47.064;15.482;2022-11-25T06:46:17;-6.40;99.90
7496;DHT22;3789;47.064;15.482;2022-11-25T06:48:50;-6.00;99.90
7496;DHT22;3789;47.064;15.482;2022-11-25T06:51:18;-5.90;99.90
7496;DHT22;3789;47.064;15.482;2022-11-25T06:53:45;-5.90;99.90
7496;DHT22;3789;47.064;15.482;2022-11-25T06:56:19;-5.90;99.90
7496;DHT22;3789;47.064;15.482;2022-11-25T06:58:47;-5.60;99.90
7496;DHT22;3789;47.064;15.482;2022-11-25T07:03:46;-3.60;99.90
7496;DHT22;3789;47.064;15.482;2022-11-25T07:06:14;-2.50;99.90
7496;DHT22;3789;47.064;15.482;2022-11-25T07:08:42;-1.70;99.90
7496;DHT22;3789;47.064;15.482;2022-11-25T07:11:24;-1.00;99.90
7496;DHT22;3789;47.064;15.482;2022-11-25T07:13:58;-0.40;99.90
7496;DHT22;3789;47.064;15.482;2022-11-25T07:16:26;0.10;99.90
7496;DHT22;3789;47.064;15.482;2022-11-25T07:18:53;0.50;99.90
7496;DHT22;3789;47.064;15.482;2022-11-25T07:21:22;0.90;99.90
7496;DHT22;3789;47.064;15.482;2022-11-25T07:23:50;1.20;99.90
7496;DHT22;3789;47.064;15.482;2022-11-25T07:26:23;1.60;99.90
7496;DHT22;3789;47.064;15.482;2022-11-25T07:28:52;1.90;99.90
7496;DHT22;3789;47.064;15.482;2022-11-25T07:31:26;2.20;99.90
7496;DHT22;3789;47.064;15.482;2022-11-25T07:34:02;2.40;99.90
7496;DHT22;3789;47.064;15.482;2022-11-25T07:36:30;2.70;99.90
7496;DHT22;3789;47.064;15.482;2022-11-25T07:39:00;3.00;99.90
7496;DHT22;3789;47.064;15.482;2022-11-25T07:41:28;3.30;99.90
7496;DHT22;3789;47.064;15.482;2022-11-25T07:44:00;3.80;99.90
7496;DHT22;3789;47.064;15.482;2022-11-25T07:46:33;4.30;99.90
7496;DHT22;3789;47.064;15.482;2022-11-25T07:49:03;4.70;99.90
7496;DHT22;3789;47.064;15.482;2022-11-25T07:51:39;4.90;99.90
7496;DHT22;3789;47.064;15.482;2022-11-25T07:54:09;5.10;99.90
7496;DHT22;3789;47.064;15.482;2022-11-25T07:56:38;5.10;99.90
7496;DHT22;3789;47.064;15.482;2022-11-25T07:59:08;5.70;99.90
7496;DHT22;3789;47.064;15.482;2022-11-25T08:01:36;6.40;99.90
7496;DHT22;3789;47.064;15.482;2022-11-25T08:04:03;6.30;99.90
7496;DHT22;3789;47.064;15.482;2022-11-25T08:06:30;6.10;99.90
7496;DHT22;3789;47.064;15.482;2022-11-25T08:08:57;6.40;99.90
7496;DHT22;3789;47.064;15.482;2022-11-25T08:11:30;7.30;99.90
7496;DHT22;3789;47.064;15.482;2022-11-25T08:13:57;8.20;99.90
7496;DHT22;3789;47.064;15.482;2022-11-25T08:16:26;8.60;99.90
7496;DHT22;3789;47.064;15.482;2022-11-25T08:18:54;8.90;99.90
7496;DHT22;3789;47.064;15.482;2022-11-25T08:21:22;9.20;99.90
7496;DHT22;3789;47.064;15.482;2022-11-25T08:23:49;9.40;99.90
7496;DHT22;3789;47.064;15.482;2022-11-25T08:26:27;9.50;99.90
7496;DHT22;3789;47.064;15.482;2022-11-25T08:28:56;9.40;99.90
7496;DHT22;3789;47.064;15.482;2022-11-25T08:31:33;9.10;99.90
7496;DHT22;3789;47.064;15.482;2022-11-25T08:34:01;8.90;99.90
7496;DHT22;3789;47.064;15.482;2022-11-25T08:36:29;9.00;99.90
7496;DHT22;3789;47.064;15.482;2022-11-25T08:38:59;9.00;99.90
7496;DHT22;3789;47.064;15.482;2022-11-25T08:41:29;8.50;99.90
7496;DHT22;3789;47.064;15.482;2022-11-25T08:43:59;6.20;99.90
7496;DHT22;3789;47.064;15.482;2022-11-25T08:46:29;3.90;99.90
7496;DHT22;3789;47.064;15.482;2022-11-25T08:48:56;2.70;99.90
7496;DHT22;3789;47.064;15.482;2022-11-25T08:51:26;2.00;99.90
7496;DHT22;3789;47.064;15.482;2022-11-25T08:53:54;1.60;99.90
7496;DHT22;3789;47.064;15.482;2022-11-25T08:56:22;1.30;99.90
7496;DHT22;3789;47.064;15.482;2022-11-25T08:58:53;1.20;99.90
7496;DHT22;3789;47.064;15.482;2022-11-25T09:01:21;1.20;99.90
7496;DHT22;3789;47.064;15.482;2022-11-25T09:03:50;1.10;99.90
7496;DHT22;3789;47.064;15.482;2022-11-25T09:06:18;1.10;99.90
7496;DHT22;3789;47.064;15.482;2022-11-25T09:08:47;1.10;99.90
7496;DHT22;3789;47.064;15.482;2022-11-25T09:11:14;1.10;99.90
7496;DHT22;3789;47.064;15.482;2022-11-25T09:13:42;1.00;99.90
7496;DHT22;3789;47.064;15.482;2022-11-25T09:16:09;1.50;99.90
7496;DHT22;3789;47.064;15.482;2022-11-25T09:18:36;2.30;99.90
7496;DHT22;3789;47.064;15.482;2022-11-25T09:21:08;3.30;99.90
7496;DHT22;3789;47.064;15.482;2022-11-25T09:23:37;4.30;99.90
7496;DHT22;3789;47.064;15.482;2022-11-25T09:26:05;5.20;99.90
7496;DHT22;3789;47.064;15.482;2022-11-25T09:28:34;5.70;99.90
7496;DHT22;3789;47.064;15.482;2022-11-25T09:31:07;6.20;99.90
7496;DHT22;3789;47.064;15.482;2022-11-25T09:33:34;6.40;99.90
7496;DHT22;3789;47.064;15.482;2022-11-25T09:36:02;6.80;99.90
7496;DHT22;3789;47.064;15.482;2022-11-25T09:38:29;6.80;99.90
7496;DHT22;3789;47.064;15.482;2022-11-25T09:41:00;6.90;99.90
7496;DHT22;3789;47.064;15.482;2022-11-25T09:43:52;6.90;99.90
7496;DHT22;3789;47.064;15.482;2022-11-25T09:55:12;7.70;99.90
7496;DHT22;3789;47.064;15.482;2022-11-25T10:00:35;8.30;99.90
7496;DHT22;3789;47.064;15.482;2022-11-25T10:06:24;8.20;99.90
7496;DHT22;3789;47.064;15.482;2022-11-25T10:09:02;8.50;99.90
7496;DHT22;3789;47.064;15.482;2022-11-25T10:11:51;8.60;99.90
7496;DHT22;3789;47.064;15.482;2022-11-25T10:15:05;8.60;99.90
7496;DHT22;3789;47.064;15.482;2022-11-25T10:17:40;8.60;99.90
7496;DHT22;3789;47.064;15.482;2022-11-25T10:20:35;8.50;99.90
7496;DHT22;3789;47.064;15.482;2022-11-25T10:23:07;8.60;99.90
7496;DHT22;3789;47.064;15.482;2022-11-25T10:25:43;8.60;99.90
7496;DHT22;3789;47.064;15.482;2022-11-25T10:28:18;8.70;99.90
7496;DHT22;3789;47.064;15.482;2022-11-25T10:33:44;8.70;99.90
7496;DHT22;3789;47.064;15.482;2022-11-25T10:39:12;8.80;99.90
7496;DHT22;3789;47.064;15.482;2022-11-25T10:44:50;9.30;99.90
7496;DHT22;3789;47.064;15.482;2022-11-25T10:47:54;9.40;99.90
7496;DHT22;3789;47.064;15.482;2022-11-25T10:53:05;9.30;99.90
7496;DHT22;3789;47.064;15.482;2022-11-25T10:55:36;9.40;99.90
7496;DHT22;3789;47.064;15.482;2022-11-25T11:01:13;9.70;99.90
7496;DHT22;3789;47.064;15.482;2022-11-25T11:03:44;9.70;99.90
7496;DHT22;3789;47.064;15.482;2022-11-25T11:06:47;9.70;99.90
7496;DHT22;3789;47.064;15.482;2022-11-25T11:09:39;9.80;99.90
7496;DHT22;3789;47.064;15.482;2022-11-25T11:12:23;9.70;99.90
7496;DHT22;3789;47.064;15.482;2022-11-25T11:14:53;9.70;99.90
7496;DHT22;3789;47.064;15.482;2022-11-25T11:17:39;9.70;99.90
7496;DHT22;3789;47.064;15.482;2022-11-25T11:22:34;9.70;99.90
7496;DHT22;3789;47.064;15.482;2022-11-25T11:27:49;9.70;99.90
7496;DHT22;3789;47.064;15.482;2022-11-25T11:30:19;9.70;99.90
7496;DHT22;3789;47.064;15.482;2022-11-25T11:35:54;9.60;99.90
7496;DHT22;3789;47.064;15.482;2022-11-25T11:38:35;9.60;99.90
7496;DHT22;3789;47.064;15.482;2022-11-25T11:41:20;9.60;99.90
7496;DHT22;3789;47.064;15.482;2022-11-25T11:44:12;9.70;99.90
7496;DHT22;3789;47.064;15.482;2022-11-25T11:49:54;9.90;99.90
7496;DHT22;3789;47.064;15.482;2022-11-25T11:55:04;9.80;99.90
7496;DHT22;3789;47.064;15.482;2022-11-25T12:00:35;9.90;99.90
7496;DHT22;3789;47.064;15.482;2022-11-25T12:03:15;9.80;99.90
7496;DHT22;3789;47.064;15.482;2022-11-25T12:05:43;9.90;99.90
7496;DHT22;3789;47.064;15.482;2022-11-25T12:08:39;9.80;99.90
7496;DHT22;3789;47.064;15.482;2022-11-25T12:11:15;9.80;99.90
7496;DHT22;3789;47.064;15.482;2022-11-25T12:16:42;9.70;99.90
7496;DHT22;3789;47.064;15.482;2022-11-25T12:22:01;9.70;99.90
7496;DHT22;3789;47.064;15.482;2022-11-25T12:24:43;9.70;99.90
7496;DHT22;3789;47.064;15.482;2022-11-25T12:27:17;9.60;99.90
7496;DHT22;3789;47.064;15.482;2022-11-25T12:30:00;9.60;99.90
7496;DHT22;3789;47.064;15.482;2022-11-25T12:35:58;9.40;99.90
7496;DHT22;3789;47.064;15.482;2022-11-25T12:38:55;9.50;99.90
7496;DHT22;3789;47.064;15.482;2022-11-25T12:44:42;9.30;99.90
7496;DHT22;3789;47.064;15.482;2022-11-25T12:47:12;9.40;99.90
7496;DHT22;3789;47.064;15.482;2022-11-25T12:49:45;9.40;99.90
7496;DHT22;3789;47.064;15.482;2022-11-25T12:55:23;9.40;99.90
7496;DHT22;3789;47.064;15.482;2022-11-25T13:00:30;9.30;99.90
7496;DHT22;3789;47.064;15.482;2022-11-25T13:07:36;9.30;99.90
7496;DHT22;3789;47.064;15.482;2022-11-25T13:10:03;9.30;99.90
7496;DHT22;3789;47.064;15.482;2022-11-25T13:15:30;9.20;99.90
7496;DHT22;3789;47.064;15.482;2022-11-25T13:18:07;9.20;99.90
7496;DHT22;3789;47.064;15.482;2022-11-25T13:20:43;9.10;99.90
7496;DHT22;3789;47.064;15.482;2022-11-25T13:25:41;9.10;99.90
7496;DHT22;3789;47.064;15.482;2022-11-25T13:28:33;9.00;99.90
7496;DHT22;3789;47.064;15.482;2022-11-25T13:36:47;7.50;99.90
7496;DHT22;3789;47.064;15.482;2022-11-25T13:44:56;2.90;99.90
7496;DHT22;3789;47.064;15.482;2022-11-25T13:52:57;2.20;99.90
7496;DHT22;3789;47.064;15.482;2022-11-25T13:55:35;2.80;99.90
7496;DHT22;3789;47.064;15.482;2022-11-25T14:01:04;4.30;99.90
7496;DHT22;3789;47.064;15.482;2022-11-25T14:03:55;5.00;99.90
7496;DHT22;3789;47.064;15.482;2022-11-25T14:09:03;5.80;99.90
7496;DHT22;3789;47.064;15.482;2022-11-25T14:25:20;7.20;99.90
7496;DHT22;3789;47.064;15.482;2022-11-25T14:27:53;7.30;99.90
7496;DHT22;3789;47.064;15.482;2022-11-25T14:30:29;7.40;99.90
7496;DHT22;3789;47.064;15.482;2022-11-25T14:33:07;7.40;99.90
7496;DHT22;3789;47.064;15.482;2022-11-25T14:35:43;7.40;99.90
7496;DHT22;3789;47.064;15.482;2022-11-25T14:38:17;7.40;99.90
7496;DHT22;3789;47.064;15.482;2022-11-25T14:40:59;7.30;99.90
7496;DHT22;3789;47.064;15.482;2022-11-25T14:43:37;7.40;99.90
7496;DHT22;3789;47.064;15.482;2022-11-25T14:46:14;7.40;99.90
7496;DHT22;3789;47.064;15.482;2022-11-25T14:48:42;7.40;99.90
7496;DHT22;3789;47.064;15.482;2022-11-25T14:51:11;7.40;99.90
7496;DHT22;3789;47.064;15.482;2022-11-25T14:53:44;7.30;99.90
7496;DHT22;3789;47.064;15.482;2022-11-25T14:56:32;7.30;99.90
7496;DHT22;3789;47.064;15.482;2022-11-25T14:59:02;7.20;99.90
7496;DHT22;3789;47.064;15.482;2022-11-25T15:01:53;7.20;99.90
7496;DHT22;3789;47.064;15.482;2022-11-25T15:04:25;7.20;99.90
7496;DHT22;3789;47.064;15.482;2022-11-25T15:07:20;7.10;99.90
7496;DHT22;3789;47.064;15.482;2022-11-25T15:09:59;7.00;99.90
7496;DHT22;3789;47.064;15.482;2022-11-25T15:12:30;7.00;99.90
7496;DHT22;3789;47.064;15.482;2022-11-25T15:15:04;6.90;99.90
7496;DHT22;3789;47.064;15.482;2022-11-25T15:17:43;6.90;99.90
7496;DHT22;3789;47.064;15.482;2022-11-25T15:20:17;6.80;99.90
7496;DHT22;3789;47.064;15.482;2022-11-25T15:22:48;6.80;99.90
7496;DHT22;3789;47.064;15.482;2022-11-25T15:25:18;6.70;99.90
7496;DHT22;3789;47.064;15.482;2022-11-25T15:27:52;6.60;99.90
7496;DHT22;3789;47.064;15.482;2022-11-25T15:30:24;6.60;99.90
7496;DHT22;3789;47.064;15.482;2022-11-25T15:32:59;6.50;99.90
7496;DHT22;3789;47.064;15.482;2022-11-25T15:35:43;6.40;99.90
7496;DHT22;3789;47.064;15.482;2022-11-25T15:38:42;6.30;99.90
7496;DHT22;3789;47.064;15.482;2022-11-25T15:41:33;6.30;99.90
7496;DHT22;3789;47.064;15.482;2022-11-25T15:44:06;6.30;99.90
7496;DHT22;3789;47.064;15.482;2022-11-25T15:46:37;6.30;99.90
7496;DHT22;3789;47.064;15.482;2022-11-25T15:49:13;6.20;99.90
7496;DHT22;3789;47.064;15.482;2022-11-25T15:52:14;6.20;99.90
7496;DHT22;3789;47.064;15.482;2022-11-25T15:54:49;6.20;99.90
7496;DHT22;3789;47.064;15.482;2022-11-25T15:57:33;6.10;99.90
7496;DHT22;3789;47.064;15.482;2022-11-25T16:00:19;6.10;99.90
7496;DHT22;3789;47.064;15.482;2022-11-25T16:02:54;6.10;99.90
7496;DHT22;3789;47.064;15.482;2022-11-25T16:05:58;6.10;99.90
7496;DHT22;3789;47.064;15.482;2022-11-25T16:09:01;6.00;99.90
7496;DHT22;3789;47.064;15.482;2022-11-25T16:12:14;6.00;99.90
7496;DHT22;3789;47.064;15.482;2022-11-25T16:14:46;5.90;99.90
7496;DHT22;3789;47.064;15.482;2022-11-25T16:17:14;5.80;99.90
7496;DHT22;3789;47.064;15.482;2022-11-25T16:19:46;5.80;99.90
7496;DHT22;3789;47.064;15.482;2022-11-25T16:22:19;5.70;99.90
7496;DHT22;3789;47.064;15.482;2022-11-25T16:24:52;5.70;99.90
7496;DHT22;3789;47.064;15.482;2022-11-25T16:27:45;5.70;99.90
7496;DHT22;3789;47.064;15.482;2022-11-25T16:30:19;5.70;99.90
7496;DHT22;3789;47.064;15.482;2022-11-25T16:32:50;5.80;99.90
7496;DHT22;3789;47.064;15.482;2022-11-25T16:35:29;5.80;99.90
7496;DHT22;3789;47.064;15.482;2022-11-25T16:38:00;5.80;99.90
7496;DHT22;3789;47.064;15.482;2022-11-25T16:40:28;5.80;99.90
7496;DHT22;3789;47.064;15.482;2022-11-25T16:42:57;5.90;99.90
7496;DHT22;3789;47.064;15.482;2022-11-25T16:45:27;5.90;99.90
7496;DHT22;3789;47.064;15.482;2022-11-25T16:47:59;5.90;99.90
7496;DHT22;3789;47.064;15.482;2022-11-25T16:50:30;6.00;99.90
7496;DHT22;3789;47.064;15.482;2022-11-25T16:52:59;6.00;99.90
7496;DHT22;3789;47.064;15.482;2022-11-25T16:55:32;6.00;99.90
7496;DHT22;3789;47.064;15.482;2022-11-25T16:58:10;6.00;99.90
7496;DHT22;3789;47.064;15.482;2022-11-25T17:00:52;5.90;99.90
7496;DHT22;3789;47.064;15.482;2022-11-25T17:03:32;5.90;99.90
7496;DHT22;3789;47.064;15.482;2022-11-25T17:06:28;5.80;99.90
7496;DHT22;3789;47.064;15.482;2022-11-25T17:08:57;5.90;99.90
7496;DHT22;3789;47.064;15.482;2022-11-25T17:11:38;5.90;99.90
7496;DHT22;3789;47.064;15.482;2022-11-25T17:14:30;5.90;99.90
7496;DHT22;3789;47.064;15.482;2022-11-25T17:17:12;5.90;99.90
7496;DHT22;3789;47.064;15.482;2022-11-25T17:19:53;5.90;99.90
7496;DHT22;3789;47.064;15.482;2022-11-25T17:22:29;5.80;99.90
7496;DHT22;3789;47.064;15.482;2022-11-25T17:25:05;5.90;99.90
7496;DHT22;3789;47.064;15.482;2022-11-25T17:27:36;5.90;99.90
7496;DHT22;3789;47.064;15.482;2022-11-25T17:30:12;6.00;99.90
7496;DHT22;3789;47.064;15.482;2022-11-25T17:32:45;6.00;99.90
7496;DHT22;3789;47.064;15.482;2022-11-25T17:35:19;6.00;99.90
7496;DHT22;3789;47.064;15.482;2022-11-25T17:37:48;6.00;99.90
7496;DHT22;3789;47.064;15.482;2022-11-25T17:40:17;6.10;99.90
7496;DHT22;3789;47.064;15.482;2022-11-25T17:42:46;6.00;99.90
7496;DHT22;3789;47.064;15.482;2022-11-25T17:45:20;6.00;99.90
7496;DHT22;3789;47.064;15.482;2022-11-25T17:47:47;6.00;99.90
7496;DHT22;3789;47.064;15.482;2022-11-25T17:50:19;6.00;99.90
7496;DHT22;3789;47.064;15.482;2022-11-25T17:52:51;6.00;99.90
7496;DHT22;3789;47.064;15.482;2022-11-25T17:55:30;6.00;99.90
7496;DHT22;3789;47.064;15.482;2022-11-25T17:58:00;5.90;99.90
7496;DHT22;3789;47.064;15.482;2022-11-25T18:00:32;5.90;99.90
7496;DHT22;3789;47.064;15.482;2022-11-25T18:03:01;5.80;99.90
7496;DHT22;3789;47.064;15.482;2022-11-25T18:05:31;5.80;99.90
7496;DHT22;3789;47.064;15.482;2022-11-25T18:08:04;5.80;99.90
7496;DHT22;3789;47.064;15.482;2022-11-25T18:10:43;5.80;99.90
7496;DHT22;3789;47.064;15.482;2022-11-25T18:13:14;5.90;99.90
7496;DHT22;3789;47.064;15.482;2022-11-25T18:15:47;5.80;99.90
7496;DHT22;3789;47.064;15.482;2022-11-25T18:18:25;5.70;99.90
7496;DHT22;3789;47.064;15.482;2022-11-25T18:20:54;5.60;99.90
7496;DHT22;3789;47.064;15.482;2022-11-25T18:23:23;5.60;99.90
7496;DHT22;3789;47.064;15.482;2022-11-25T18:25:57;5.60;99.90
7496;DHT22;3789;47.064;15.482;2022-11-25T18:28:36;5.60;99.90
7496;DHT22;3789;47.064;15.482;2022-11-25T18:31:04;5.70;99.90
7496;DHT22;3789;47.064;15.482;2022-11-25T18:33:34;5.70;99.90
7496;DHT22;3789;47.064;15.482;2022-11-25T18:36:12;5.70;99.90
7496;DHT22;3789;47.064;15.482;2022-11-25T18:38:59;5.70;99.90
7496;DHT22;3789;47.064;15.482;2022-11-25T18:41:30;5.70;99.90
7496;DHT22;3789;47.064;15.482;2022-11-25T18:44:01;5.60;99.90